sensor_id;sensor_type;location;lat;lon;timestamp;P1;durP1;ratioP1;P2;durP2;ratioP2
40162;SDS011;25881;47.462;19.304;2023-03-09T00:02:17;8.97;;;4.70;;
40162;SDS011;25881;47.462;19.304;2023-03-09T00:04:42;12.90;;;5.27;;
40162;SDS011;25881;47.462;19.304;2023-03-09T00:07:08;7.63;;;4.30;;
40162;SDS011;25881;47.462;19.304;2023-03-09T00:09:33;10.03;;;4.23;;
40162;SDS011;25881;47.462;19.304;2023-03-09T00:11:58;11.90;;;4.13;;
40162;SDS011;25881;47.462;19.304;2023-03-09T00:14:23;6.37;;;3.67;;
40162;SDS011;25881;47.462;19.304;2023-03-09T00:16:49;12.00;;;3.80;;
40162;SDS011;25881;47.462;19.304;2023-03-09T00:19:15;8.10;;;3.75;;
40162;SDS011;25881;47.462;19.304;2023-03-09T00:21:51;9.02;;;4.15;;
40162;SDS011;25881;47.462;19.304;2023-03-09T00:24:18;6.88;;;4.65;;
40162;SDS011;25881;47.462;19.304;2023-03-09T00:26:48;7.18;;;3.35;;
40162;SDS011;25881;47.462;19.304;2023-03-09T00:29:14;6.28;;;4.10;;
40162;SDS011;25881;47.462;19.304;2023-03-09T00:31:39;6.35;;;3.85;;
40162;SDS011;25881;47.462;19.304;2023-03-09T00:34:05;9.40;;;4.25;;
40162;SDS011;25881;47.462;19.304;2023-03-09T00:36:30;7.95;;;4.38;;
40162;SDS011;25881;47.462;19.304;2023-03-09T00:38:56;6.70;;;3.75;;
40162;SDS011;25881;47.462;19.304;2023-03-09T00:41:22;10.45;;;5.03;;
40162;SDS011;25881;47.462;19.304;2023-03-09T00:43:48;8.70;;;4.47;;
40162;SDS011;25881;47.462;19.304;2023-03-09T00:46:13;5.35;;;3.53;;
40162;SDS011;25881;47.462;19.304;2023-03-09T00:48:39;9.27;;;4.22;;
40162;SDS011;25881;47.462;19.304;2023-03-09T00:51:05;8.70;;;4.35;;
40162;SDS011;25881;47.462;19.304;2023-03-09T00:53:30;11.05;;;4.20;;
40162;SDS011;25881;47.462;19.304;2023-03-09T00:55:55;8.37;;;3.57;;
40162;SDS011;25881;47.462;19.304;2023-03-09T00:58:21;8.52;;;4.18;;
40162;SDS011;25881;47.462;19.304;2023-03-09T01:00:46;8.33;;;4.60;;
40162;SDS011;25881;47.462;19.304;2023-03-09T01:03:11;10.05;;;3.67;;
40162;SDS011;25881;47.462;19.304;2023-03-09T01:05:37;8.68;;;4.60;;
40162;SDS011;25881;47.462;19.304;2023-03-09T01:08:02;6.15;;;3.45;;
40162;SDS011;25881;47.462;19.304;2023-03-09T01:10:27;9.03;;;3.80;;
40162;SDS011;25881;47.462;19.304;2023-03-09T01:12:53;7.27;;;3.70;;
40162;SDS011;25881;47.462;19.304;2023-03-09T01:15:20;7.50;;;3.78;;
40162;SDS011;25881;47.462;19.304;2023-03-09T01:17:45;5.90;;;3.70;;
40162;SDS011;25881;47.462;19.304;2023-03-09T01:20:12;7.18;;;3.70;;
40162;SDS011;25881;47.462;19.304;2023-03-09T01:22:38;10.50;;;4.32;;
40162;SDS011;25881;47.462;19.304;2023-03-09T01:25:03;7.15;;;3.88;;
40162;SDS011;25881;47.462;19.304;2023-03-09T01:27:29;8.95;;;3.83;;
40162;SDS011;25881;47.462;19.304;2023-03-09T01:29:54;7.78;;;3.60;;
40162;SDS011;25881;47.462;19.304;2023-03-09T01:32:20;10.23;;;3.92;;
40162;SDS011;25881;47.462;19.304;2023-03-09T01:34:45;7.07;;;3.90;;
40162;SDS011;25881;47.462;19.304;2023-03-09T01:37:10;6.60;;;3.70;;
40162;SDS011;25881;47.462;19.304;2023-03-09T01:39:35;7.00;;;3.70;;
40162;SDS011;25881;47.462;19.304;2023-03-09T01:42:01;9.93;;;4.40;;
40162;SDS011;25881;47.462;19.304;2023-03-09T01:44:26;5.00;;;3.50;;
40162;SDS011;25881;47.462;19.304;2023-03-09T01:46:52;7.15;;;3.55;;
40162;SDS011;25881;47.462;19.304;2023-03-09T01:54:26;6.87;;;3.70;;
40162;SDS011;25881;47.462;19.304;2023-03-09T01:56:54;7.72;;;3.53;;
40162;SDS011;25881;47.462;19.304;2023-03-09T01:59:21;8.48;;;3.85;;
40162;SDS011;25881;47.462;19.304;2023-03-09T02:01:46;6.30;;;3.58;;
40162;SDS011;25881;47.462;19.304;2023-03-09T02:04:13;4.93;;;3.37;;
40162;SDS011;25881;47.462;19.304;2023-03-09T02:06:40;5.93;;;3.47;;
40162;SDS011;25881;47.462;19.304;2023-03-09T02:09:11;8.45;;;3.53;;
40162;SDS011;25881;47.462;19.304;2023-03-09T02:11:37;8.10;;;3.78;;
40162;SDS011;25881;47.462;19.304;2023-03-09T02:14:03;7.20;;;3.42;;
40162;SDS011;25881;47.462;19.304;2023-03-09T02:16:28;7.22;;;3.40;;
40162;SDS011;25881;47.462;19.304;2023-03-09T02:18:54;6.38;;;3.10;;
40162;SDS011;25881;47.462;19.304;2023-03-09T02:26:46;6.93;;;3.70;;
40162;SDS011;25881;47.462;19.304;2023-03-09T02:29:12;10.00;;;3.90;;
40162;SDS011;25881;47.462;19.304;2023-03-09T02:31:38;7.03;;;3.40;;
40162;SDS011;25881;47.462;19.304;2023-03-09T02:34:04;9.32;;;3.63;;
40162;SDS011;25881;47.462;19.304;2023-03-09T02:36:29;8.25;;;3.58;;
40162;SDS011;25881;47.462;19.304;2023-03-09T02:38:55;11.30;;;3.47;;
40162;SDS011;25881;47.462;19.304;2023-03-09T02:41:22;6.13;;;3.33;;
40162;SDS011;25881;47.462;19.304;2023-03-09T02:43:49;6.97;;;3.67;;
40162;SDS011;25881;47.462;19.304;2023-03-09T02:46:14;9.23;;;4.03;;
40162;SDS011;25881;47.462;19.304;2023-03-09T02:48:39;11.70;;;3.72;;
40162;SDS011;25881;47.462;19.304;2023-03-09T02:51:05;8.52;;;3.53;;
40162;SDS011;25881;47.462;19.304;2023-03-09T02:53:31;5.68;;;3.47;;
40162;SDS011;25881;47.462;19.304;2023-03-09T02:55:56;8.30;;;3.88;;
40162;SDS011;25881;47.462;19.304;2023-03-09T02:58:21;8.13;;;3.60;;
40162;SDS011;25881;47.462;19.304;2023-03-09T03:00:47;7.03;;;3.17;;
40162;SDS011;25881;47.462;19.304;2023-03-09T03:03:12;6.30;;;3.87;;
40162;SDS011;25881;47.462;19.304;2023-03-09T03:05:37;7.65;;;3.80;;
40162;SDS011;25881;47.462;19.304;2023-03-09T03:08:02;6.72;;;3.67;;
40162;SDS011;25881;47.462;19.304;2023-03-09T03:10:28;9.63;;;3.97;;
40162;SDS011;25881;47.462;19.304;2023-03-09T03:12:53;6.77;;;3.87;;
40162;SDS011;25881;47.462;19.304;2023-03-09T03:15:18;8.07;;;3.77;;
40162;SDS011;25881;47.462;19.304;2023-03-09T03:17:43;8.53;;;4.17;;
40162;SDS011;25881;47.462;19.304;2023-03-09T03:20:09;6.30;;;3.67;;
40162;SDS011;25881;47.462;19.304;2023-03-09T03:22:39;7.18;;;3.22;;
40162;SDS011;25881;47.462;19.304;2023-03-09T03:25:04;7.88;;;4.20;;
40162;SDS011;25881;47.462;19.304;2023-03-09T03:27:30;7.45;;;3.92;;
40162;SDS011;25881;47.462;19.304;2023-03-09T03:29:56;8.27;;;3.40;;
40162;SDS011;25881;47.462;19.304;2023-03-09T03:32:23;7.60;;;3.83;;
40162;SDS011;25881;47.462;19.304;2023-03-09T03:34:48;9.07;;;3.70;;
40162;SDS011;25881;47.462;19.304;2023-03-09T03:37:14;6.13;;;3.63;;
40162;SDS011;25881;47.462;19.304;2023-03-09T03:39:39;7.20;;;4.05;;
40162;SDS011;25881;47.462;19.304;2023-03-09T03:42:04;7.10;;;3.90;;
40162;SDS011;25881;47.462;19.304;2023-03-09T03:44:29;9.73;;;4.00;;
40162;SDS011;25881;47.462;19.304;2023-03-09T03:46:55;9.47;;;4.17;;
40162;SDS011;25881;47.462;19.304;2023-03-09T03:49:20;6.93;;;3.53;;
40162;SDS011;25881;47.462;19.304;2023-03-09T03:51:46;6.53;;;3.60;;
40162;SDS011;25881;47.462;19.304;2023-03-09T03:54:11;9.20;;;3.70;;
40162;SDS011;25881;47.462;19.304;2023-03-09T03:56:37;9.52;;;3.72;;
40162;SDS011;25881;47.462;19.304;2023-03-09T03:59:02;6.72;;;3.47;;
40162;SDS011;25881;47.462;19.304;2023-03-09T04:01:28;9.13;;;3.83;;
40162;SDS011;25881;47.462;19.304;2023-03-09T04:03:53;6.85;;;3.55;;
40162;SDS011;25881;47.462;19.304;2023-03-09T04:06:18;6.93;;;3.90;;
40162;SDS011;25881;47.462;19.304;2023-03-09T04:08:43;6.37;;;3.53;;
40162;SDS011;25881;47.462;19.304;2023-03-09T04:11:09;11.87;;;4.23;;
40162;SDS011;25881;47.462;19.304;2023-03-09T04:13:34;6.85;;;4.07;;
40162;SDS011;25881;47.462;19.304;2023-03-09T04:15:59;7.65;;;4.05;;
40162;SDS011;25881;47.462;19.304;2023-03-09T04:18:25;9.55;;;3.65;;
40162;SDS011;25881;47.462;19.304;2023-03-09T04:20:50;5.93;;;4.20;;
40162;SDS011;25881;47.462;19.304;2023-03-09T04:23:15;7.30;;;3.30;;
40162;SDS011;25881;47.462;19.304;2023-03-09T04:25:40;6.20;;;3.70;;
40162;SDS011;25881;47.462;19.304;2023-03-09T04:28:06;9.40;;;3.88;;
40162;SDS011;25881;47.462;19.304;2023-03-09T04:30:31;10.93;;;4.07;;
40162;SDS011;25881;47.462;19.304;2023-03-09T04:32:56;8.48;;;4.03;;
40162;SDS011;25881;47.462;19.304;2023-03-09T04:35:21;7.83;;;4.10;;
40162;SDS011;25881;47.462;19.304;2023-03-09T04:37:47;6.30;;;4.03;;
40162;SDS011;25881;47.462;19.304;2023-03-09T04:40:13;6.47;;;4.03;;
40162;SDS011;25881;47.462;19.304;2023-03-09T04:42:38;10.98;;;4.50;;
40162;SDS011;25881;47.462;19.304;2023-03-09T04:45:04;11.03;;;4.43;;
40162;SDS011;25881;47.462;19.304;2023-03-09T04:47:29;7.95;;;4.05;;
40162;SDS011;25881;47.462;19.304;2023-03-09T04:49:54;10.18;;;4.05;;
40162;SDS011;25881;47.462;19.304;2023-03-09T04:52:20;8.97;;;4.93;;
40162;SDS011;25881;47.462;19.304;2023-03-09T04:54:46;7.90;;;4.75;;
40162;SDS011;25881;47.462;19.304;2023-03-09T04:57:11;7.22;;;4.50;;
40162;SDS011;25881;47.462;19.304;2023-03-09T04:59:36;8.57;;;4.10;;
40162;SDS011;25881;47.462;19.304;2023-03-09T05:02:02;8.70;;;4.37;;
40162;SDS011;25881;47.462;19.304;2023-03-09T05:04:27;10.33;;;4.53;;
40162;SDS011;25881;47.462;19.304;2023-03-09T05:06:52;8.27;;;3.90;;
40162;SDS011;25881;47.462;19.304;2023-03-09T05:09:17;7.23;;;4.17;;
40162;SDS011;25881;47.462;19.304;2023-03-09T05:11:43;9.17;;;3.57;;
40162;SDS011;25881;47.462;19.304;2023-03-09T05:14:08;7.03;;;3.53;;
40162;SDS011;25881;47.462;19.304;2023-03-09T05:16:34;9.32;;;4.20;;
40162;SDS011;25881;47.462;19.304;2023-03-09T05:18:59;8.48;;;4.28;;
40162;SDS011;25881;47.462;19.304;2023-03-09T05:21:24;7.15;;;3.80;;
40162;SDS011;25881;47.462;19.304;2023-03-09T05:23:50;6.78;;;4.25;;
40162;SDS011;25881;47.462;19.304;2023-03-09T05:26:15;8.17;;;4.00;;
40162;SDS011;25881;47.462;19.304;2023-03-09T05:28:40;7.07;;;4.13;;
40162;SDS011;25881;47.462;19.304;2023-03-09T05:31:12;10.63;;;4.50;;
40162;SDS011;25881;47.462;19.304;2023-03-09T05:33:38;8.35;;;4.07;;
40162;SDS011;25881;47.462;19.304;2023-03-09T05:36:09;9.13;;;4.50;;
40162;SDS011;25881;47.462;19.304;2023-03-09T05:38:38;9.35;;;4.70;;
40162;SDS011;25881;47.462;19.304;2023-03-09T05:41:06;11.77;;;4.47;;
40162;SDS011;25881;47.462;19.304;2023-03-09T05:43:31;12.05;;;4.82;;
40162;SDS011;25881;47.462;19.304;2023-03-09T05:45:56;8.40;;;4.40;;
40162;SDS011;25881;47.462;19.304;2023-03-09T05:48:21;12.33;;;5.53;;
40162;SDS011;25881;47.462;19.304;2023-03-09T05:50:47;11.95;;;4.93;;
40162;SDS011;25881;47.462;19.304;2023-03-09T05:53:12;10.60;;;5.03;;
40162;SDS011;25881;47.462;19.304;2023-03-09T05:55:37;9.07;;;4.57;;
40162;SDS011;25881;47.462;19.304;2023-03-09T05:58:02;9.53;;;5.03;;
40162;SDS011;25881;47.462;19.304;2023-03-09T06:00:28;11.43;;;4.80;;
40162;SDS011;25881;47.462;19.304;2023-03-09T06:02:54;14.35;;;5.68;;
40162;SDS011;25881;47.462;19.304;2023-03-09T06:05:19;10.45;;;5.38;;
40162;SDS011;25881;47.462;19.304;2023-03-09T06:07:45;8.93;;;4.40;;
40162;SDS011;25881;47.462;19.304;2023-03-09T06:10:10;9.37;;;4.83;;
40162;SDS011;25881;47.462;19.304;2023-03-09T06:12:36;8.98;;;4.38;;
40162;SDS011;25881;47.462;19.304;2023-03-09T06:15:01;9.60;;;4.68;;
40162;SDS011;25881;47.462;19.304;2023-03-09T06:17:27;12.57;;;4.72;;
40162;SDS011;25881;47.462;19.304;2023-03-09T06:19:52;11.48;;;5.00;;
40162;SDS011;25881;47.462;19.304;2023-03-09T06:22:18;8.15;;;4.25;;
40162;SDS011;25881;47.462;19.304;2023-03-09T06:24:44;18.20;;;11.70;;
40162;SDS011;25881;47.462;19.304;2023-03-09T06:27:09;17.17;;;8.27;;
40162;SDS011;25881;47.462;19.304;2023-03-09T06:29:34;11.97;;;5.30;;
40162;SDS011;25881;47.462;19.304;2023-03-09T06:31:59;7.90;;;4.30;;
40162;SDS011;25881;47.462;19.304;2023-03-09T06:34:27;10.07;;;5.10;;
40162;SDS011;25881;47.462;19.304;2023-03-09T06:36:53;13.13;;;5.57;;
40162;SDS011;25881;47.462;19.304;2023-03-09T06:39:18;14.83;;;6.60;;
40162;SDS011;25881;47.462;19.304;2023-03-09T06:41:43;13.87;;;5.60;;
40162;SDS011;25881;47.462;19.304;2023-03-09T06:44:08;16.97;;;6.20;;
40162;SDS011;25881;47.462;19.304;2023-03-09T06:46:34;12.80;;;5.20;;
40162;SDS011;25881;47.462;19.304;2023-03-09T06:48:59;11.82;;;5.78;;
40162;SDS011;25881;47.462;19.304;2023-03-09T06:51:24;11.70;;;5.60;;
40162;SDS011;25881;47.462;19.304;2023-03-09T06:53:50;10.10;;;5.38;;
40162;SDS011;25881;47.462;19.304;2023-03-09T06:56:15;11.30;;;5.87;;
40162;SDS011;25881;47.462;19.304;2023-03-09T06:58:40;8.63;;;5.40;;
40162;SDS011;25881;47.462;19.304;2023-03-09T07:01:06;13.55;;;5.15;;
40162;SDS011;25881;47.462;19.304;2023-03-09T07:03:32;13.68;;;5.30;;
40162;SDS011;25881;47.462;19.304;2023-03-09T07:05:57;13.50;;;5.53;;
40162;SDS011;25881;47.462;19.304;2023-03-09T07:08:22;11.98;;;6.10;;
40162;SDS011;25881;47.462;19.304;2023-03-09T07:10:47;9.52;;;5.63;;
40162;SDS011;25881;47.462;19.304;2023-03-09T07:13:14;14.10;;;6.47;;
40162;SDS011;25881;47.462;19.304;2023-03-09T07:15:39;14.80;;;5.90;;
40162;SDS011;25881;47.462;19.304;2023-03-09T07:18:04;9.20;;;5.80;;
40162;SDS011;25881;47.462;19.304;2023-03-09T07:20:30;9.80;;;5.53;;
40162;SDS011;25881;47.462;19.304;2023-03-09T07:22:55;11.75;;;4.93;;
40162;SDS011;25881;47.462;19.304;2023-03-09T07:25:20;14.00;;;5.23;;
40162;SDS011;25881;47.462;19.304;2023-03-09T07:27:47;11.57;;;5.78;;
40162;SDS011;25881;47.462;19.304;2023-03-09T07:30:12;10.75;;;5.88;;
40162;SDS011;25881;47.462;19.304;2023-03-09T07:32:38;11.52;;;5.57;;
40162;SDS011;25881;47.462;19.304;2023-03-09T07:35:04;13.17;;;5.83;;
40162;SDS011;25881;47.462;19.304;2023-03-09T07:37:29;15.18;;;5.63;;
40162;SDS011;25881;47.462;19.304;2023-03-09T07:39:54;14.67;;;6.30;;
40162;SDS011;25881;47.462;19.304;2023-03-09T07:42:19;14.33;;;5.93;;
40162;SDS011;25881;47.462;19.304;2023-03-09T07:44:45;9.27;;;5.50;;
40162;SDS011;25881;47.462;19.304;2023-03-09T07:47:10;12.03;;;5.37;;
40162;SDS011;25881;47.462;19.304;2023-03-09T07:49:36;14.57;;;5.83;;
40162;SDS011;25881;47.462;19.304;2023-03-09T07:52:01;12.37;;;5.20;;
40162;SDS011;25881;47.462;19.304;2023-03-09T07:54:27;13.65;;;5.80;;
40162;SDS011;25881;47.462;19.304;2023-03-09T07:56:52;11.97;;;5.90;;
40162;SDS011;25881;47.462;19.304;2023-03-09T07:59:18;12.35;;;5.60;;
40162;SDS011;25881;47.462;19.304;2023-03-09T08:01:44;15.77;;;5.40;;
40162;SDS011;25881;47.462;19.304;2023-03-09T08:04:09;13.65;;;6.03;;
40162;SDS011;25881;47.462;19.304;2023-03-09T08:06:38;10.33;;;5.23;;
40162;SDS011;25881;47.462;19.304;2023-03-09T08:09:06;11.52;;;6.15;;
40162;SDS011;25881;47.462;19.304;2023-03-09T08:11:32;10.55;;;5.43;;
40162;SDS011;25881;47.462;19.304;2023-03-09T08:13:58;10.23;;;5.53;;
40162;SDS011;25881;47.462;19.304;2023-03-09T08:16:24;13.02;;;4.90;;
40162;SDS011;25881;47.462;19.304;2023-03-09T08:18:49;10.80;;;5.55;;
40162;SDS011;25881;47.462;19.304;2023-03-09T08:21:14;14.25;;;6.05;;
40162;SDS011;25881;47.462;19.304;2023-03-09T08:23:40;12.55;;;4.82;;
40162;SDS011;25881;47.462;19.304;2023-03-09T08:26:12;7.03;;;4.90;;
40162;SDS011;25881;47.462;19.304;2023-03-09T08:28:38;13.70;;;6.47;;
40162;SDS011;25881;47.462;19.304;2023-03-09T08:31:03;13.50;;;7.05;;
40162;SDS011;25881;47.462;19.304;2023-03-09T08:33:29;11.32;;;6.57;;
40162;SDS011;25881;47.462;19.304;2023-03-09T08:35:54;14.35;;;5.88;;
40162;SDS011;25881;47.462;19.304;2023-03-09T08:38:20;8.75;;;5.60;;
40162;SDS011;25881;47.462;19.304;2023-03-09T08:40:45;11.30;;;5.53;;
40162;SDS011;25881;47.462;19.304;2023-03-09T08:43:10;11.83;;;5.13;;
40162;SDS011;25881;47.462;19.304;2023-03-09T08:45:36;9.47;;;4.97;;
40162;SDS011;25881;47.462;19.304;2023-03-09T08:48:02;10.20;;;4.80;;
40162;SDS011;25881;47.462;19.304;2023-03-09T08:50:27;8.60;;;4.13;;
40162;SDS011;25881;47.462;19.304;2023-03-09T08:52:53;7.45;;;3.90;;
40162;SDS011;25881;47.462;19.304;2023-03-09T08:55:18;8.10;;;4.28;;
40162;SDS011;25881;47.462;19.304;2023-03-09T08:57:43;8.60;;;4.53;;
40162;SDS011;25881;47.462;19.304;2023-03-09T09:00:09;10.60;;;5.40;;
40162;SDS011;25881;47.462;19.304;2023-03-09T09:02:35;8.95;;;4.55;;
40162;SDS011;25881;47.462;19.304;2023-03-09T09:05:01;10.75;;;4.28;;
40162;SDS011;25881;47.462;19.304;2023-03-09T09:07:27;8.05;;;4.10;;
40162;SDS011;25881;47.462;19.304;2023-03-09T09:09:53;8.40;;;3.75;;
40162;SDS011;25881;47.462;19.304;2023-03-09T09:12:18;6.45;;;3.55;;
40162;SDS011;25881;47.462;19.304;2023-03-09T09:14:44;8.77;;;3.43;;
40162;SDS011;25881;47.462;19.304;2023-03-09T09:17:09;5.40;;;3.43;;
40162;SDS011;25881;47.462;19.304;2023-03-09T09:19:36;7.20;;;3.25;;
40162;SDS011;25881;47.462;19.304;2023-03-09T09:22:02;5.90;;;2.78;;
40162;SDS011;25881;47.462;19.304;2023-03-09T09:24:29;8.63;;;3.25;;
40162;SDS011;25881;47.462;19.304;2023-03-09T09:26:54;8.23;;;3.38;;
40162;SDS011;25881;47.462;19.304;2023-03-09T09:29:20;9.85;;;3.25;;
40162;SDS011;25881;47.462;19.304;2023-03-09T09:31:45;7.68;;;3.70;;
40162;SDS011;25881;47.462;19.304;2023-03-09T09:34:10;5.72;;;2.85;;
40162;SDS011;25881;47.462;19.304;2023-03-09T09:36:37;9.15;;;3.40;;
40162;SDS011;25881;47.462;19.304;2023-03-09T09:39:03;6.63;;;3.37;;
40162;SDS011;25881;47.462;19.304;2023-03-09T09:41:32;6.63;;;3.20;;
40162;SDS011;25881;47.462;19.304;2023-03-09T09:44:02;9.98;;;4.32;;
40162;SDS011;25881;47.462;19.304;2023-03-09T09:46:29;7.60;;;4.05;;
40162;SDS011;25881;47.462;19.304;2023-03-09T09:48:56;6.25;;;3.50;;
40162;SDS011;25881;47.462;19.304;2023-03-09T09:56:45;9.60;;;3.33;;
40162;SDS011;25881;47.462;19.304;2023-03-09T09:59:10;5.47;;;2.70;;
40162;SDS011;25881;47.462;19.304;2023-03-09T10:01:39;4.70;;;3.25;;
40162;SDS011;25881;47.462;19.304;2023-03-09T10:04:12;7.07;;;3.95;;
40162;SDS011;25881;47.462;19.304;2023-03-09T10:06:39;6.38;;;2.78;;
40162;SDS011;25881;47.462;19.304;2023-03-09T10:11:33;9.25;;;2.85;;
40162;SDS011;25881;47.462;19.304;2023-03-09T10:16:29;5.60;;;2.30;;
40162;SDS011;25881;47.462;19.304;2023-03-09T10:18:58;5.13;;;2.33;;
40162;SDS011;25881;47.462;19.304;2023-03-09T10:21:35;4.57;;;2.30;;
40162;SDS011;25881;47.462;19.304;2023-03-09T10:24:15;6.45;;;2.53;;
40162;SDS011;25881;47.462;19.304;2023-03-09T10:26:43;10.82;;;2.85;;
40162;SDS011;25881;47.462;19.304;2023-03-09T10:29:13;10.25;;;2.90;;
40162;SDS011;25881;47.462;19.304;2023-03-09T10:34:10;9.68;;;2.85;;
40162;SDS011;25881;47.462;19.304;2023-03-09T10:36:36;6.00;;;2.92;;
40162;SDS011;25881;47.462;19.304;2023-03-09T10:39:10;7.50;;;2.33;;
40162;SDS011;25881;47.462;19.304;2023-03-09T10:41:36;7.63;;;3.08;;
40162;SDS011;25881;47.462;19.304;2023-03-09T10:44:01;3.70;;;2.30;;
40162;SDS011;25881;47.462;19.304;2023-03-09T10:46:28;7.22;;;2.13;;
40162;SDS011;25881;47.462;19.304;2023-03-09T10:49:10;6.70;;;2.72;;
40162;SDS011;25881;47.462;19.304;2023-03-09T10:51:38;10.05;;;2.58;;
40162;SDS011;25881;47.462;19.304;2023-03-09T10:56:47;6.55;;;2.20;;
40162;SDS011;25881;47.462;19.304;2023-03-09T10:59:16;10.95;;;3.78;;
40162;SDS011;25881;47.462;19.304;2023-03-09T11:01:46;5.35;;;2.60;;
40162;SDS011;25881;47.462;19.304;2023-03-09T11:06:48;7.15;;;2.53;;
40162;SDS011;25881;47.462;19.304;2023-03-09T11:09:14;33.75;;;4.22;;
40162;SDS011;25881;47.462;19.304;2023-03-09T11:11:44;6.97;;;2.45;;
40162;SDS011;25881;47.462;19.304;2023-03-09T11:14:18;5.78;;;2.35;;
40162;SDS011;25881;47.462;19.304;2023-03-09T11:16:54;6.25;;;2.17;;
40162;SDS011;25881;47.462;19.304;2023-03-09T11:19:20;5.70;;;2.25;;
40162;SDS011;25881;47.462;19.304;2023-03-09T11:21:49;5.53;;;2.33;;
40162;SDS011;25881;47.462;19.304;2023-03-09T11:24:15;7.72;;;2.67;;
40162;SDS011;25881;47.462;19.304;2023-03-09T11:27:01;5.82;;;2.47;;
40162;SDS011;25881;47.462;19.304;2023-03-09T11:29:34;6.45;;;1.85;;
40162;SDS011;25881;47.462;19.304;2023-03-09T11:32:01;8.18;;;1.80;;
40162;SDS011;25881;47.462;19.304;2023-03-09T11:34:30;5.43;;;2.38;;
40162;SDS011;25881;47.462;19.304;2023-03-09T11:36:58;9.10;;;2.58;;
40162;SDS011;25881;47.462;19.304;2023-03-09T11:39:35;4.93;;;1.70;;
40162;SDS011;25881;47.462;19.304;2023-03-09T11:42:05;5.07;;;2.28;;
40162;SDS011;25881;47.462;19.304;2023-03-09T11:46:56;3.10;;;2.00;;
40162;SDS011;25881;47.462;19.304;2023-03-09T11:49:23;4.18;;;2.38;;
40162;SDS011;25881;47.462;19.304;2023-03-09T11:51:51;8.15;;;2.70;;
40162;SDS011;25881;47.462;19.304;2023-03-09T11:56:46;7.70;;;2.60;;
40162;SDS011;25881;47.462;19.304;2023-03-09T11:59:19;9.30;;;3.15;;
40162;SDS011;25881;47.462;19.304;2023-03-09T12:01:47;9.05;;;3.20;;
40162;SDS011;25881;47.462;19.304;2023-03-09T12:04:15;10.50;;;3.47;;
40162;SDS011;25881;47.462;19.304;2023-03-09T12:09:20;12.27;;;3.10;;
40162;SDS011;25881;47.462;19.304;2023-03-09T12:11:52;6.63;;;2.63;;
40162;SDS011;25881;47.462;19.304;2023-03-09T12:14:23;6.53;;;3.15;;
40162;SDS011;25881;47.462;19.304;2023-03-09T12:16:51;5.22;;;2.55;;
40162;SDS011;25881;47.462;19.304;2023-03-09T12:19:19;7.32;;;2.85;;
40162;SDS011;25881;47.462;19.304;2023-03-09T12:22:04;8.63;;;3.50;;
40162;SDS011;25881;47.462;19.304;2023-03-09T12:24:38;6.75;;;2.90;;
40162;SDS011;25881;47.462;19.304;2023-03-09T12:29:42;4.30;;;2.45;;
40162;SDS011;25881;47.462;19.304;2023-03-09T12:32:18;8.70;;;3.03;;
40162;SDS011;25881;47.462;19.304;2023-03-09T12:34:45;7.32;;;2.13;;
40162;SDS011;25881;47.462;19.304;2023-03-09T12:40:17;14.93;;;3.80;;
40162;SDS011;25881;47.462;19.304;2023-03-09T12:42:45;8.88;;;4.30;;
40162;SDS011;25881;47.462;19.304;2023-03-09T12:47:36;10.20;;;6.17;;
40162;SDS011;25881;47.462;19.304;2023-03-09T12:50:21;8.55;;;2.83;;
40162;SDS011;25881;47.462;19.304;2023-03-09T13:03:15;6.38;;;2.83;;
40162;SDS011;25881;47.462;19.304;2023-03-09T13:05:45;5.38;;;1.75;;
40162;SDS011;25881;47.462;19.304;2023-03-09T13:08:28;11.75;;;2.13;;
40162;SDS011;25881;47.462;19.304;2023-03-09T13:13:40;17.30;;;2.05;;
40162;SDS011;25881;47.462;19.304;2023-03-09T13:18:49;6.80;;;1.20;;
40162;SDS011;25881;47.462;19.304;2023-03-09T13:22:03;9.73;;;1.67;;
40162;SDS011;25881;47.462;19.304;2023-03-09T13:24:11;13.27;;;1.35;;
40162;SDS011;25881;47.462;19.304;2023-03-09T13:26:39;5.30;;;1.15;;
40162;SDS011;25881;47.462;19.304;2023-03-09T13:29:08;3.47;;;0.85;;
40162;SDS011;25881;47.462;19.304;2023-03-09T13:33:58;3.78;;;1.52;;
40162;SDS011;25881;47.462;19.304;2023-03-09T13:36:24;8.02;;;1.65;;
40162;SDS011;25881;47.462;19.304;2023-03-09T13:38:53;3.00;;;1.30;;
40162;SDS011;25881;47.462;19.304;2023-03-09T13:41:20;3.80;;;1.33;;
40162;SDS011;25881;47.462;19.304;2023-03-09T13:43:47;11.25;;;1.80;;
40162;SDS011;25881;47.462;19.304;2023-03-09T13:46:23;3.33;;;1.60;;
40162;SDS011;25881;47.462;19.304;2023-03-09T13:48:50;3.78;;;0.90;;
40162;SDS011;25881;47.462;19.304;2023-03-09T13:53:57;3.20;;;1.17;;
40162;SDS011;25881;47.462;19.304;2023-03-09T13:56:22;4.20;;;1.25;;
40162;SDS011;25881;47.462;19.304;2023-03-09T13:58:48;12.37;;;1.67;;
40162;SDS011;25881;47.462;19.304;2023-03-09T14:01:21;7.75;;;1.30;;
40162;SDS011;25881;47.462;19.304;2023-03-09T14:03:49;4.10;;;0.88;;
40162;SDS011;25881;47.462;19.304;2023-03-09T14:06:14;2.80;;;1.00;;
40162;SDS011;25881;47.462;19.304;2023-03-09T14:08:44;5.65;;;1.00;;
40162;SDS011;25881;47.462;19.304;2023-03-09T14:11:13;4.78;;;1.10;;
40162;SDS011;25881;47.462;19.304;2023-03-09T14:13:43;9.15;;;1.30;;
40162;SDS011;25881;47.462;19.304;2023-03-09T14:16:12;4.38;;;0.80;;
40162;SDS011;25881;47.462;19.304;2023-03-09T14:18:40;1.55;;;0.90;;
40162;SDS011;25881;47.462;19.304;2023-03-09T14:23:54;4.07;;;1.08;;
40162;SDS011;25881;47.462;19.304;2023-03-09T14:26:24;9.50;;;1.25;;
40162;SDS011;25881;47.462;19.304;2023-03-09T14:31:24;9.38;;;1.50;;
40162;SDS011;25881;47.462;19.304;2023-03-09T14:33:56;2.88;;;1.00;;
40162;SDS011;25881;47.462;19.304;2023-03-09T14:36:22;6.05;;;1.00;;
40162;SDS011;25881;47.462;19.304;2023-03-09T14:38:58;12.75;;;1.95;;
40162;SDS011;25881;47.462;19.304;2023-03-09T14:41:25;8.05;;;1.40;;
40162;SDS011;25881;47.462;19.304;2023-03-09T14:43:50;4.47;;;0.93;;
40162;SDS011;25881;47.462;19.304;2023-03-09T14:46:16;9.20;;;1.03;;
40162;SDS011;25881;47.462;19.304;2023-03-09T14:48:49;5.07;;;1.30;;
40162;SDS011;25881;47.462;19.304;2023-03-09T14:51:21;6.32;;;1.42;;
40162;SDS011;25881;47.462;19.304;2023-03-09T14:53:59;4.88;;;1.40;;
40162;SDS011;25881;47.462;19.304;2023-03-09T14:56:25;7.65;;;1.23;;
40162;SDS011;25881;47.462;19.304;2023-03-09T14:58:51;6.72;;;1.20;;
40162;SDS011;25881;47.462;19.304;2023-03-09T15:01:16;5.00;;;1.00;;
40162;SDS011;25881;47.462;19.304;2023-03-09T15:03:42;2.70;;;1.15;;
40162;SDS011;25881;47.462;19.304;2023-03-09T15:06:08;3.03;;;1.25;;
40162;SDS011;25881;47.462;19.304;2023-03-09T15:08:33;3.42;;;1.25;;
40162;SDS011;25881;47.462;19.304;2023-03-09T15:10:58;4.30;;;1.60;;
40162;SDS011;25881;47.462;19.304;2023-03-09T15:13:24;2.58;;;1.10;;
40162;SDS011;25881;47.462;19.304;2023-03-09T15:15:49;2.30;;;1.02;;
40162;SDS011;25881;47.462;19.304;2023-03-09T15:18:14;3.67;;;1.43;;
40162;SDS011;25881;47.462;19.304;2023-03-09T15:20:40;4.60;;;1.10;;
40162;SDS011;25881;47.462;19.304;2023-03-09T15:23:05;4.85;;;1.00;;
40162;SDS011;25881;47.462;19.304;2023-03-09T15:25:30;4.72;;;1.10;;
40162;SDS011;25881;47.462;19.304;2023-03-09T15:27:56;5.82;;;1.85;;
40162;SDS011;25881;47.462;19.304;2023-03-09T15:30:21;8.07;;;2.00;;
40162;SDS011;25881;47.462;19.304;2023-03-09T15:32:46;6.60;;;2.47;;
40162;SDS011;25881;47.462;19.304;2023-03-09T15:35:16;7.25;;;1.60;;
40162;SDS011;25881;47.462;19.304;2023-03-09T15:37:42;6.32;;;2.53;;
40162;SDS011;25881;47.462;19.304;2023-03-09T15:40:08;6.88;;;1.27;;